sensor_id;sensor_type;location;lat;lon;timestamp;pressure;altitude;pressure_sealevel;temperature;humidity
45621;BME280;31345;51.522;10.702;2022-09-09T00:02:03;98580.81;;;12.53;100.00
45621;BME280;31345;51.522;10.702;2022-09-09T00:04:35;98588.41;;;12.34;100.00
45621;BME280;31345;51.522;10.702;2022-09-09T00:07:07;98572.38;;;12.49;100.00
45621;BME280;31345;51.522;10.702;2022-09-09T00:09:41;98581.31;;;12.46;100.00
45621;BME280;31345;51.522;10.702;2022-09-09T00:12:12;98588.16;;;12.59;100.00
45621;BME280;31345;51.522;10.702;2022-09-09T00:14:48;98593.00;;;12.42;100.00
45621;BME280;31345;51.522;10.702;2022-09-09T00:17:34;98575.66;;;12.63;100.00
45621;BME280;31345;51.522;10.702;2022-09-09T00:20:12;98570.41;;;12.63;100.00
45621;BME280;31345;51.522;10.702;2022-09-09T00:22:44;98570.84;;;12.68;100.00
45621;BME280;31345;51.522;10.702;2022-09-09T00:25:19;98567.47;;;12.56;100.00
45621;BME280;31345;51.522;10.702;2022-09-09T00:27:50;98567.78;;;12.63;100.00
45621;BME280;31345;51.522;10.702;2022-09-09T00:30:20;98565.28;;;12.61;100.00
45621;BME280;31345;51.522;10.702;2022-09-09T00:32:54;98579.22;;;12.40;100.00
45621;BME280;31345;51.522;10.702;2022-09-09T00:35:27;98570.44;;;12.30;100.00
45621;BME280;31345;51.522;10.702;2022-09-09T00:38:00;98569.44;;;12.64;100.00
45621;BME280;31345;51.522;10.702;2022-09-09T00:40:33;98572.06;;;12.64;100.00
45621;BME280;31345;51.522;10.702;2022-09-09T00:43:25;98572.84;;;12.54;100.00
45621;BME280;31345;51.522;10.702;2022-09-09T00:46:13;98574.66;;;12.42;100.00
45621;BME280;31345;51.522;10.702;2022-09-09T00:48:55;98569.75;;;12.49;100.00
45621;BME280;31345;51.522;10.702;2022-09-09T00:51:34;98567.34;;;12.57;100.00
45621;BME280;31345;51.522;10.702;2022-09-09T00:54:20;98571.81;;;12.88;100.00
45621;BME280;31345;51.522;10.702;2022-09-09T00:57:00;98567.63;;;12.43;100.00
45621;BME280;31345;51.522;10.702;2022-09-09T00:59:35;98565.44;;;12.27;100.00
45621;BME280;31345;51.522;10.702;2022-09-09T01:02:14;98566.03;;;12.30;100.00
45621;BME280;31345;51.522;10.702;2022-09-09T01:04:43;98569.25;;;12.55;100.00
45621;BME280;31345;51.522;10.702;2022-09-09T01:07:16;98570.00;;;12.67;100.00
45621;BME280;31345;51.522;10.702;2022-09-09T01:09:52;98584.06;;;12.24;100.00
45621;BME280;31345;51.522;10.702;2022-09-09T01:12:30;98571.88;;;12.23;100.00
45621;BME280;31345;51.522;10.702;2022-09-09T01:15:08;98584.66;;;12.16;100.00
45621;BME280;31345;51.522;10.702;2022-09-09T01:17:53;98581.34;;;12.35;100.00
45621;BME280;31345;51.522;10.702;2022-09-09T01:20:27;98575.53;;;12.31;100.00
45621;BME280;31345;51.522;10.702;2022-09-09T01:23:14;98573.25;;;12.38;100.00
45621;BME280;31345;51.522;10.702;2022-09-09T01:28:49;98576.38;;;12.32;100.00
45621;BME280;31345;51.522;10.702;2022-09-09T01:31:27;98573.66;;;12.33;100.00
45621;BME280;31345;51.522;10.702;2022-09-09T01:33:56;98574.00;;;12.29;100.00
45621;BME280;31345;51.522;10.702;2022-09-09T01:36:31;98567.97;;;12.17;100.00
45621;BME280;31345;51.522;10.702;2022-09-09T01:39:00;98571.50;;;12.27;100.00
45621;BME280;31345;51.522;10.702;2022-09-09T01:41:30;98569.06;;;12.47;100.00
45621;BME280;31345;51.522;10.702;2022-09-09T01:44:03;98562.31;;;12.33;100.00
45621;BME280;31345;51.522;10.702;2022-09-09T01:46:33;98571.28;;;12.73;100.00
45621;BME280;31345;51.522;10.702;2022-09-09T01:49:04;98577.81;;;12.36;100.00
45621;BME280;31345;51.522;10.702;2022-09-09T01:51:33;98569.81;;;12.38;100.00
45621;BME280;31345;51.522;10.702;2022-09-09T01:54:06;98574.16;;;12.49;100.00
45621;BME280;31345;51.522;10.702;2022-09-09T01:56:43;98569.22;;;12.34;100.00
45621;BME280;31345;51.522;10.702;2022-09-09T01:59:32;98570.66;;;12.27;100.00
45621;BME280;31345;51.522;10.702;2022-09-09T02:02:10;98572.09;;;12.31;100.00
45621;BME280;31345;51.522;10.702;2022-09-09T02:04:47;98561.69;;;12.08;100.00
45621;BME280;31345;51.522;10.702;2022-09-09T02:07:32;98576.53;;;12.19;100.00
45621;BME280;31345;51.522;10.702;2022-09-09T02:10:09;98577.03;;;12.13;100.00
45621;BME280;31345;51.522;10.702;2022-09-09T02:12:45;98565.94;;;12.20;100.00
45621;BME280;31345;51.522;10.702;2022-09-09T02:15:18;98567.66;;;11.99;100.00
45621;BME280;31345;51.522;10.702;2022-09-09T02:17:52;98568.38;;;12.01;100.00
45621;BME280;31345;51.522;10.702;2022-09-09T02:20:20;98570.88;;;12.35;100.00
45621;BME280;31345;51.522;10.702;2022-09-09T02:22:57;98569.03;;;12.14;100.00
45621;BME280;31345;51.522;10.702;2022-09-09T02:25:28;98561.56;;;12.42;100.00
45621;BME280;31345;51.522;10.702;2022-09-09T02:28:07;98564.56;;;12.05;100.00
45621;BME280;31345;51.522;10.702;2022-09-09T02:30:37;98561.94;;;11.93;100.00
45621;BME280;31345;51.522;10.702;2022-09-09T02:33:08;98565.03;;;11.99;100.00
45621;BME280;31345;51.522;10.702;2022-09-09T02:35:51;98558.44;;;12.16;100.00
45621;BME280;31345;51.522;10.702;2022-09-09T02:38:26;98567.63;;;12.10;100.00
45621;BME280;31345;51.522;10.702;2022-09-09T02:41:01;98567.66;;;11.99;100.00
45621;BME280;31345;51.522;10.702;2022-09-09T02:43:32;98562.91;;;11.81;100.00
45621;BME280;31345;51.522;10.702;2022-09-09T02:46:08;98564.31;;;12.08;100.00
45621;BME280;31345;51.522;10.702;2022-09-09T02:48:47;98561.09;;;12.04;100.00
45621;BME280;31345;51.522;10.702;2022-09-09T02:51:24;98570.44;;;12.30;100.00
45621;BME280;31345;51.522;10.702;2022-09-09T02:53:59;98573.84;;;12.09;100.00
45621;BME280;31345;51.522;10.702;2022-09-09T02:56:36;98578.59;;;12.15;100.00
45621;BME280;31345;51.522;10.702;2022-09-09T02:59:09;98568.72;;;12.07;100.00
45621;BME280;31345;51.522;10.702;2022-09-09T03:01:38;98563.47;;;12.07;100.00
45621;BME280;31345;51.522;10.702;2022-09-09T03:04:07;98560.50;;;12.12;100.00
45621;BME280;31345;51.522;10.702;2022-09-09T03:06:36;98555.47;;;12.20;100.00
45621;BME280;31345;51.522;10.702;2022-09-09T03:09:15;98562.47;;;12.20;100.00
45621;BME280;31345;51.522;10.702;2022-09-09T03:11:43;98568.53;;;12.32;100.00
45621;BME280;31345;51.522;10.702;2022-09-09T03:14:15;98562.53;;;12.41;100.00
45621;BME280;31345;51.522;10.702;2022-09-09T03:16:43;98562.47;;;12.53;100.00
45621;BME280;31345;51.522;10.702;2022-09-09T03:19:11;98570.66;;;12.59;100.00
45621;BME280;31345;51.522;10.702;2022-09-09T03:21:38;98571.09;;;12.43;100.00
45621;BME280;31345;51.522;10.702;2022-09-09T03:24:07;98575.44;;;12.33;100.00
45621;BME280;31345;51.522;10.702;2022-09-09T03:26:36;98568.59;;;12.42;100.00
45621;BME280;31345;51.522;10.702;2022-09-09T03:29:07;98567.13;;;12.49;100.00
45621;BME280;31345;51.522;10.702;2022-09-09T03:31:36;98559.91;;;12.41;100.00
45621;BME280;31345;51.522;10.702;2022-09-09T03:34:04;98568.09;;;12.48;100.00
45621;BME280;31345;51.522;10.702;2022-09-09T03:36:34;98570.03;;;12.46;100.00
45621;BME280;31345;51.522;10.702;2022-09-09T03:39:02;98571.03;;;12.55;100.00
45621;BME280;31345;51.522;10.702;2022-09-09T03:41:31;98572.50;;;12.48;100.00
45621;BME280;31345;51.522;10.702;2022-09-09T03:44:00;98567.00;;;12.51;100.00
45621;BME280;31345;51.522;10.702;2022-09-09T03:46:32;98573.78;;;12.53;100.00
45621;BME280;31345;51.522;10.702;2022-09-09T03:49:02;98565.13;;;12.41;100.00
45621;BME280;31345;51.522;10.702;2022-09-09T03:51:31;98566.69;;;12.44;100.00
45621;BME280;31345;51.522;10.702;2022-09-09T03:54:02;98567.47;;;12.56;100.00
45621;BME280;31345;51.522;10.702;2022-09-09T03:56:32;98573.94;;;12.52;100.00
45621;BME280;31345;51.522;10.702;2022-09-09T03:59:00;98570.72;;;12.48;100.00
45621;BME280;31345;51.522;10.702;2022-09-09T04:01:28;98568.13;;;12.37;100.00
45621;BME280;31345;51.522;10.702;2022-09-09T04:03:55;98573.78;;;12.32;100.00
45621;BME280;31345;51.522;10.702;2022-09-09T04:06:26;98570.19;;;12.33;100.00
45621;BME280;31345;51.522;10.702;2022-09-09T04:08:54;98571.28;;;12.30;100.00
45621;BME280;31345;51.522;10.702;2022-09-09T04:11:22;98570.72;;;12.48;100.00
45621;BME280;31345;51.522;10.702;2022-09-09T04:13:52;98572.13;;;12.52;100.00
45621;BME280;31345;51.522;10.702;2022-09-09T04:16:20;98566.78;;;12.42;100.00
45621;BME280;31345;51.522;10.702;2022-09-09T04:18:48;98558.41;;;12.27;100.00
45621;BME280;31345;51.522;10.702;2022-09-09T04:21:17;98555.53;;;12.30;100.00
45621;BME280;31345;51.522;10.702;2022-09-09T04:23:45;98558.81;;;12.44;100.00
45621;BME280;31345;51.522;10.702;2022-09-09T04:26:13;98558.44;;;12.49;100.00
45621;BME280;31345;51.522;10.702;2022-09-09T04:28:43;98561.81;;;12.60;100.00
45621;BME280;31345;51.522;10.702;2022-09-09T04:31:17;98555.97;;;12.68;100.00
45621;BME280;31345;51.522;10.702;2022-09-09T04:33:48;98561.88;;;12.70;100.00
45621;BME280;31345;51.522;10.702;2022-09-09T04:36:16;98563.63;;;12.60;100.00
45621;BME280;31345;51.522;10.702;2022-09-09T04:38:47;98563.28;;;12.53;100.00
45621;BME280;31345;51.522;10.702;2022-09-09T04:41:16;98565.91;;;12.53;100.00
45621;BME280;31345;51.522;10.702;2022-09-09T04:43:45;98573.66;;;12.55;100.00
45621;BME280;31345;51.522;10.702;2022-09-09T04:46:15;98573.28;;;12.59;100.00
45621;BME280;31345;51.522;10.702;2022-09-09T04:48:44;98569.81;;;12.59;100.00
45621;BME280;31345;51.522;10.702;2022-09-09T04:51:13;98563.81;;;12.68;100.00
45621;BME280;31345;51.522;10.702;2022-09-09T04:53:42;98567.19;;;12.59;100.00
45621;BME280;31345;51.522;10.702;2022-09-09T04:56:14;98572.72;;;12.56;100.00
45621;BME280;31345;51.522;10.702;2022-09-09T04:58:48;98573.84;;;12.63;100.00
45621;BME280;31345;51.522;10.702;2022-09-09T05:01:18;98575.59;;;12.53;100.00
45621;BME280;31345;51.522;10.702;2022-09-09T05:03:49;98566.50;;;12.57;100.00
45621;BME280;31345;51.522;10.702;2022-09-09T05:06:21;98580.72;;;12.76;100.00
45621;BME280;31345;51.522;10.702;2022-09-09T05:08:53;98575.47;;;12.76;100.00
45621;BME280;31345;51.522;10.702;2022-09-09T05:11:27;98580.78;;;12.64;100.00
45621;BME280;31345;51.522;10.702;2022-09-09T05:14:16;98579.09;;;12.63;100.00
45621;BME280;31345;51.522;10.702;2022-09-09T05:16:44;98575.66;;;12.63;100.00
45621;BME280;31345;51.522;10.702;2022-09-09T05:19:13;98581.72;;;12.84;100.00
45621;BME280;31345;51.522;10.702;2022-09-09T05:21:47;98584.59;;;12.81;100.00
45621;BME280;31345;51.522;10.702;2022-09-09T05:24:19;98588.59;;;12.76;100.00
45621;BME280;31345;51.522;10.702;2022-09-09T05:26:53;98583.78;;;12.81;100.00
45621;BME280;31345;51.522;10.702;2022-09-09T05:29:21;98592.94;;;12.87;100.00
45621;BME280;31345;51.522;10.702;2022-09-09T05:31:49;98590.00;;;12.80;100.00
45621;BME280;31345;51.522;10.702;2022-09-09T05:34:20;98607.28;;;12.82;100.00
45621;BME280;31345;51.522;10.702;2022-09-09T05:36:50;98602.41;;;12.78;100.00
45621;BME280;31345;51.522;10.702;2022-09-09T05:39:19;98604.53;;;12.84;100.00
45621;BME280;31345;51.522;10.702;2022-09-09T05:41:47;98599.84;;;12.88;100.00
45621;BME280;31345;51.522;10.702;2022-09-09T05:44:16;98595.56;;;12.87;100.00
45621;BME280;31345;51.522;10.702;2022-09-09T05:46:44;98597.22;;;12.88;100.00
45621;BME280;31345;51.522;10.702;2022-09-09T05:49:13;98610.22;;;12.89;100.00
45621;BME280;31345;51.522;10.702;2022-09-09T05:51:42;98604.31;;;12.97;100.00
45621;BME280;31345;51.522;10.702;2022-09-09T05:54:12;98601.09;;;13.15;100.00
45621;BME280;31345;51.522;10.702;2022-09-09T05:56:45;98600.84;;;13.18;100.00
45621;BME280;31345;51.522;10.702;2022-09-09T05:59:12;98595.91;;;13.24;100.00
45621;BME280;31345;51.522;10.702;2022-09-09T06:01:42;98596.38;;;13.40;100.00
45621;BME280;31345;51.522;10.702;2022-09-09T06:04:19;98595.31;;;13.52;100.00
45621;BME280;31345;51.522;10.702;2022-09-09T06:06:51;98595.31;;;13.52;100.00
45621;BME280;31345;51.522;10.702;2022-09-09T06:09:21;98597.13;;;13.52;100.00
45621;BME280;31345;51.522;10.702;2022-09-09T06:11:49;98591.78;;;13.63;100.00
45621;BME280;31345;51.522;10.702;2022-09-09T06:14:17;98585.88;;;13.71;100.00
45621;BME280;31345;51.522;10.702;2022-09-09T06:16:48;98593.22;;;13.77;100.00
45621;BME280;31345;51.522;10.702;2022-09-09T06:19:25;98596.03;;;13.95;100.00
45621;BME280;31345;51.522;10.702;2022-09-09T06:21:56;98587.09;;;14.08;100.00
45621;BME280;31345;51.522;10.702;2022-09-09T06:24:24;98598.56;;;14.17;100.00
45621;BME280;31345;51.522;10.702;2022-09-09T06:26:52;98595.66;;;14.20;100.00
45621;BME280;31345;51.522;10.702;2022-09-09T06:29:23;98594.41;;;14.24;100.00
45621;BME280;31345;51.522;10.702;2022-09-09T06:31:54;98603.03;;;14.26;100.00
45621;BME280;31345;51.522;10.702;2022-09-09T06:34:23;98608.69;;;14.31;100.00
45621;BME280;31345;51.522;10.702;2022-09-09T06:36:55;98605.22;;;14.21;100.00
45621;BME280;31345;51.522;10.702;2022-09-09T06:39:24;98604.81;;;14.25;100.00
45621;BME280;31345;51.522;10.702;2022-09-09T06:41:52;98605.34;;;14.39;100.00
45621;BME280;31345;51.522;10.702;2022-09-09T06:44:38;98608.84;;;14.49;100.00
45621;BME280;31345;51.522;10.702;2022-09-09T06:47:12;98603.84;;;14.76;100.00
45621;BME280;31345;51.522;10.702;2022-09-09T06:49:41;98597.84;;;14.94;100.00
45621;BME280;31345;51.522;10.702;2022-09-09T06:52:10;98600.28;;;15.25;100.00
45621;BME280;31345;51.522;10.702;2022-09-09T06:54:39;98602.41;;;15.59;100.00
45621;BME280;31345;51.522;10.702;2022-09-09T06:57:06;98610.44;;;15.86;100.00
45621;BME280;31345;51.522;10.702;2022-09-09T06:59:34;98604.66;;;15.82;100.00
45621;BME280;31345;51.522;10.702;2022-09-09T07:02:03;98600.34;;;15.81;100.00
45621;BME280;31345;51.522;10.702;2022-09-09T07:04:32;98606.59;;;15.80;100.00
45621;BME280;31345;51.522;10.702;2022-09-09T07:07:00;98604.09;;;15.78;100.00
45621;BME280;31345;51.522;10.702;2022-09-09T07:09:28;98602.97;;;15.81;100.00
45621;BME280;31345;51.522;10.702;2022-09-09T07:11:57;98603.13;;;15.79;100.00
45621;BME280;31345;51.522;10.702;2022-09-09T07:14:27;98601.19;;;15.81;100.00
45621;BME280;31345;51.522;10.702;2022-09-09T07:16:58;98604.38;;;16.03;100.00
45621;BME280;31345;51.522;10.702;2022-09-09T07:19:29;98606.06;;;16.23;100.00
45621;BME280;31345;51.522;10.702;2022-09-09T07:21:58;98608.88;;;16.39;100.00
45621;BME280;31345;51.522;10.702;2022-09-09T07:24:27;98610.84;;;16.55;100.00
45621;BME280;31345;51.522;10.702;2022-09-09T07:26:56;98606.97;;;16.68;100.00
45621;BME280;31345;51.522;10.702;2022-09-09T07:29:23;98608.13;;;16.92;100.00
45621;BME280;31345;51.522;10.702;2022-09-09T07:31:51;98602.91;;;17.18;100.00
45621;BME280;31345;51.522;10.702;2022-09-09T07:34:24;98609.38;;;17.24;100.00
45621;BME280;31345;51.522;10.702;2022-09-09T07:36:51;98609.78;;;17.11;100.00
45621;BME280;31345;51.522;10.702;2022-09-09T07:39:21;98612.63;;;17.18;100.00
45621;BME280;31345;51.522;10.702;2022-09-09T07:41:52;98616.75;;;17.47;100.00
45621;BME280;31345;51.522;10.702;2022-09-09T07:44:23;98609.16;;;17.79;100.00
45621;BME280;31345;51.522;10.702;2022-09-09T07:47:01;98603.38;;;17.92;98.89
45621;BME280;31345;51.522;10.702;2022-09-09T07:49:35;98612.72;;;18.12;99.77
45621;BME280;31345;51.522;10.702;2022-09-09T07:52:04;98610.75;;;18.39;98.37
45621;BME280;31345;51.522;10.702;2022-09-09T07:54:34;98607.75;;;18.09;97.41
45621;BME280;31345;51.522;10.702;2022-09-09T07:57:04;98604.16;;;18.52;97.88
45621;BME280;31345;51.522;10.702;2022-09-09T07:59:35;98608.63;;;18.51;97.09
45621;BME280;31345;51.522;10.702;2022-09-09T08:02:04;98608.34;;;18.80;95.34
45621;BME280;31345;51.522;10.702;2022-09-09T08:04:34;98607.63;;;18.44;95.20
45621;BME280;31345;51.522;10.702;2022-09-09T08:07:03;98603.34;;;18.43;94.38
45621;BME280;31345;51.522;10.702;2022-09-09T08:09:39;98614.28;;;18.82;94.92
45621;BME280;31345;51.522;10.702;2022-09-09T08:12:12;98608.19;;;18.81;94.58
45621;BME280;31345;51.522;10.702;2022-09-09T08:14:40;98612.81;;;18.79;92.99
45621;BME280;31345;51.522;10.702;2022-09-09T08:17:08;98608.19;;;18.56;93.57
45621;BME280;31345;51.522;10.702;2022-09-09T08:19:37;98615.56;;;18.44;93.60
45621;BME280;31345;51.522;10.702;2022-09-09T08:22:10;98615.13;;;18.57;95.06
45621;BME280;31345;51.522;10.702;2022-09-09T08:24:41;98619.06;;;18.45;95.56
45621;BME280;31345;51.522;10.702;2022-09-09T08:27:09;98620.44;;;18.57;96.60
45621;BME280;31345;51.522;10.702;2022-09-09T08:29:37;98623.75;;;18.84;95.18
45621;BME280;31345;51.522;10.702;2022-09-09T08:32:06;98619.09;;;18.86;94.89
45621;BME280;31345;51.522;10.702;2022-09-09T08:34:35;98621.72;;;18.53;93.71
45621;BME280;31345;51.522;10.702;2022-09-09T08:37:08;98621.25;;;18.83;93.38
45621;BME280;31345;51.522;10.702;2022-09-09T08:39:40;98615.44;;;18.71;94.13
45621;BME280;31345;51.522;10.702;2022-09-09T08:42:17;98622.06;;;18.83;93.41
45621;BME280;31345;51.522;10.702;2022-09-09T08:45:02;98629.34;;;19.06;95.33
45621;BME280;31345;51.522;10.702;2022-09-09T08:47:47;98621.69;;;19.36;91.17
45621;BME280;31345;51.522;10.702;2022-09-09T08:50:22;98617.97;;;19.54;91.34
45621;BME280;31345;51.522;10.702;2022-09-09T08:53:01;98623.59;;;19.51;91.78
45621;BME280;31345;51.522;10.702;2022-09-09T08:55:41;98621.16;;;19.41;93.21
45621;BME280;31345;51.522;10.702;2022-09-09T08:58:13;98616.44;;;18.95;92.02
45621;BME280;31345;51.522;10.702;2022-09-09T09:01:00;98620.72;;;19.21;93.12
45621;BME280;31345;51.522;10.702;2022-09-09T09:03:37;98617.72;;;19.15;92.35
45621;BME280;31345;51.522;10.702;2022-09-09T09:06:20;98617.00;;;19.47;93.06
45621;BME280;31345;51.522;10.702;2022-09-09T09:09:00;98617.63;;;19.65;89.77
45621;BME280;31345;51.522;10.702;2022-09-09T09:11:36;98619.06;;;20.08;92.02
45621;BME280;31345;51.522;10.702;2022-09-09T09:14:09;98621.03;;;20.14;89.04
45621;BME280;31345;51.522;10.702;2022-09-09T09:16:41;98627.19;;;20.38;86.41
45621;BME280;31345;51.522;10.702;2022-09-09T09:19:15;98623.53;;;20.16;84.99
45621;BME280;31345;51.522;10.702;2022-09-09T09:21:49;98635.28;;;19.81;85.56
45621;BME280;31345;51.522;10.702;2022-09-09T09:24:21;98632.13;;;19.86;85.74
45621;BME280;31345;51.522;10.702;2022-09-09T09:26:53;98645.13;;;19.56;89.16
45621;BME280;31345;51.522;10.702;2022-09-09T09:29:23;98640.19;;;19.53;89.36
45621;BME280;31345;51.522;10.702;2022-09-09T09:31:55;98642.34;;;19.41;88.24
45621;BME280;31345;51.522;10.702;2022-09-09T09:34:25;98638.88;;;19.49;88.90
45621;BME280;31345;51.522;10.702;2022-09-09T09:36:55;98640.97;;;19.70;87.79
45621;BME280;31345;51.522;10.702;2022-09-09T09:39:26;98625.50;;;19.82;85.08
45621;BME280;31345;51.522;10.702;2022-09-09T09:42:08;98627.34;;;19.81;84.23
45621;BME280;31345;51.522;10.702;2022-09-09T09:44:37;98621.53;;;19.86;86.00
45621;BME280;31345;51.522;10.702;2022-09-09T09:47:15;98629.88;;;19.66;87.71
45621;BME280;31345;51.522;10.702;2022-09-09T09:49:52;98621.94;;;19.66;87.62
45621;BME280;31345;51.522;10.702;2022-09-09T09:52:23;98627.91;;;19.60;87.09
45621;BME280;31345;51.522;10.702;2022-09-09T09:54:52;98625.19;;;19.85;88.43
45621;BME280;31345;51.522;10.702;2022-09-09T09:57:25;98632.63;;;19.81;85.59
45621;BME280;31345;51.522;10.702;2022-09-09T10:00:13;98623.88;;;20.13;83.07
45621;BME280;31345;51.522;10.702;2022-09-09T10:02:47;98618.78;;;20.03;84.58
45621;BME280;31345;51.522;10.702;2022-09-09T10:05:21;98617.69;;;20.21;84.95
45621;BME280;31345;51.522;10.702;2022-09-09T10:08:03;98627.19;;;20.38;83.38
45621;BME280;31345;51.522;10.702;2022-09-09T10:10:40;98619.06;;;20.87;83.25
45621;BME280;31345;51.522;10.702;2022-09-09T10:13:16;98615.06;;;21.36;82.66
45621;BME280;31345;51.522;10.702;2022-09-09T10:15:55;98605.81;;;21.02;80.26
45621;BME280;31345;51.522;10.702;2022-09-09T10:18:41;98611.25;;;21.39;78.64
45621;BME280;31345;51.522;10.702;2022-09-09T10:21:20;98593.94;;;21.58;78.28
45621;BME280;31345;51.522;10.702;2022-09-09T10:24:09;98599.91;;;20.91;77.74
45621;BME280;31345;51.522;10.702;2022-09-09T10:26:46;98599.88;;;20.76;80.71
45621;BME280;31345;51.522;10.702;2022-09-09T10:29:31;98581.06;;;21.46;77.72
45621;BME280;31345;51.522;10.702;2022-09-09T10:32:10;98581.88;;;22.14;73.68
45621;BME280;31345;51.522;10.702;2022-09-09T10:34:55;98583.75;;;22.20;72.45
45621;BME280;31345;51.522;10.702;2022-09-09T10:37:39;98580.34;;;22.05;71.65
45621;BME280;31345;51.522;10.702;2022-09-09T10:40:20;98586.28;;;21.70;73.04
45621;BME280;31345;51.522;10.702;2022-09-09T10:42:55;98591.22;;;20.98;74.48
45621;BME280;31345;51.522;10.702;2022-09-09T10:45:32;98585.03;;;21.35;70.06
45621;BME280;31345;51.522;10.702;2022-09-09T10:48:13;98580.50;;;20.91;73.88
45621;BME280;31345;51.522;10.702;2022-09-09T10:50:53;98590.41;;;21.12;74.85
45621;BME280;31345;51.522;10.702;2022-09-09T10:53:33;98583.72;;;21.16;72.97
45621;BME280;31345;51.522;10.702;2022-09-09T10:56:06;98580.69;;;21.04;74.72
45621;BME280;31345;51.522;10.702;2022-09-09T10:58:40;98585.31;;;20.72;74.95
45621;BME280;31345;51.522;10.702;2022-09-09T11:01:15;98582.13;;;20.77;75.61
45621;BME280;31345;51.522;10.702;2022-09-09T11:03:57;98586.31;;;20.71;76.57
45621;BME280;31345;51.522;10.702;2022-09-09T11:06:31;98582.09;;;20.53;75.81
45621;BME280;31345;51.522;10.702;2022-09-09T11:09:01;98588.56;;;20.36;75.32
45621;BME280;31345;51.522;10.702;2022-09-09T11:11:33;98580.47;;;20.29;74.94
45621;BME280;31345;51.522;10.702;2022-09-09T11:14:10;98577.28;;;20.33;73.66
45621;BME280;31345;51.522;10.702;2022-09-09T11:16:47;98583.19;;;20.21;76.11
45621;BME280;31345;51.522;10.702;2022-09-09T11:19:24;98589.50;;;20.43;77.68
45621;BME280;31345;51.522;10.702;2022-09-09T11:21:55;98589.16;;;20.69;76.80
45621;BME280;31345;51.522;10.702;2022-09-09T11:24:28;98571.28;;;20.78;75.71
45621;BME280;31345;51.522;10.702;2022-09-09T11:27:01;98571.69;;;20.90;73.08
45621;BME280;31345;51.522;10.702;2022-09-09T11:30:04;98577.47;;;20.94;74.46
45621;BME280;31345;51.522;10.702;2022-09-09T11:32:50;98577.09;;;20.82;75.21
45621;BME280;31345;51.522;10.702;2022-09-09T11:35:30;98571.34;;;21.23;71.51
45621;BME280;31345;51.522;10.702;2022-09-09T11:38:12;98567.03;;;21.68;71.66
45621;BME280;31345;51.522;10.702;2022-09-09T11:40:44;98567.78;;;21.46;71.68
45621;BME280;31345;51.522;10.702;2022-09-09T11:43:15;98563.19;;;21.40;69.95
45621;BME280;31345;51.522;10.702;2022-09-09T11:45:52;98569.78;;;21.29;70.36
45621;BME280;31345;51.522;10.702;2022-09-09T11:48:28;98577.13;;;21.42;70.72
45621;BME280;31345;51.522;10.702;2022-09-09T11:50:58;98579.44;;;21.45;69.73
45621;BME280;31345;51.522;10.702;2022-09-09T11:53:27;98579.69;;;21.35;69.29
45621;BME280;31345;51.522;10.702;2022-09-09T11:56:03;98564.28;;;21.76;66.49
45621;BME280;31345;51.522;10.702;2022-09-09T11:58:37;98568.78;;;22.56;66.78
45621;BME280;31345;51.522;10.702;2022-09-09T12:01:25;98563.06;;;22.59;65.23
45621;BME280;31345;51.522;10.702;2022-09-09T12:04:05;98560.25;;;22.96;64.36
45621;BME280;31345;51.522;10.702;2022-09-09T12:06:42;98563.44;;;23.13;62.76
45621;BME280;31345;51.522;10.702;2022-09-09T12:09:23;98554.16;;;23.38;62.77
45621;BME280;31345;51.522;10.702;2022-09-09T12:11:52;98563.34;;;23.00;64.40
45621;BME280;31345;51.522;10.702;2022-09-09T12:14:22;98555.59;;;23.05;61.53
45621;BME280;31345;51.522;10.702;2022-09-09T12:16:50;98551.09;;;22.77;61.43
45621;BME280;31345;51.522;10.702;2022-09-09T12:19:21;98552.09;;;23.33;60.67
45621;BME280;31345;51.522;10.702;2022-09-09T12:21:56;98550.44;;;23.03;60.40
45621;BME280;31345;51.522;10.702;2022-09-09T12:24:33;98553.47;;;22.94;59.91
45621;BME280;31345;51.522;10.702;2022-09-09T12:27:09;98546.16;;;22.45;61.67
45621;BME280;31345;51.522;10.702;2022-09-09T12:29:46;98554.44;;;22.35;61.63
45621;BME280;31345;51.522;10.702;2022-09-09T12:32:20;98547.13;;;22.22;62.38
45621;BME280;31345;51.522;10.702;2022-09-09T12:34:53;98543.84;;;21.98;61.21
45621;BME280;31345;51.522;10.702;2022-09-09T12:37:27;98539.13;;;22.00;63.70
45621;BME280;31345;51.522;10.702;2022-09-09T12:39:57;98549.69;;;22.09;63.29
45621;BME280;31345;51.522;10.702;2022-09-09T12:42:26;98549.03;;;21.85;64.81
45621;BME280;31345;51.522;10.702;2022-09-09T12:44:56;98543.91;;;21.68;64.16
45621;BME280;31345;51.522;10.702;2022-09-09T12:47:33;98538.06;;;22.17;60.16
45621;BME280;31345;51.522;10.702;2022-09-09T12:50:05;98527.50;;;22.45;62.67
45621;BME280;31345;51.522;10.702;2022-09-09T12:52:43;98523.88;;;22.53;61.58
45621;BME280;31345;51.522;10.702;2022-09-09T12:55:17;98527.06;;;22.70;58.73
45621;BME280;31345;51.522;10.702;2022-09-09T12:57:45;98531.66;;;22.55;60.84
45621;BME280;31345;51.522;10.702;2022-09-09T13:00:15;98523.88;;;22.82;61.18
45621;BME280;31345;51.522;10.702;2022-09-09T13:02:48;98523.34;;;22.64;61.04
45621;BME280;31345;51.522;10.702;2022-09-09T13:05:21;98528.41;;;22.88;60.55
45621;BME280;31345;51.522;10.702;2022-09-09T13:07:50;98530.38;;;23.08;59.07
45621;BME280;31345;51.522;10.702;2022-09-09T13:10:24;98521.00;;;22.55;61.35
45621;BME280;31345;51.522;10.702;2022-09-09T13:12:53;98517.34;;;22.84;61.65
45621;BME280;31345;51.522;10.702;2022-09-09T13:15:23;98508.66;;;23.53;59.07
45621;BME280;31345;51.522;10.702;2022-09-09T13:17:53;98508.34;;;23.27;60.15
45621;BME280;31345;51.522;10.702;2022-09-09T13:20:24;98501.00;;;23.36;58.17